Jack Mc Namara Field Airport Crescent City US
ICAO: KCEC
IATA: CEC
Category: Medium
Scheduled Services: Yes

Elevation: 61 ft
TransAlt. 18000 ft.

Airport Communications:
ASOS:119.925
SEATTLE CNTR:124.85
CTAF:122.8
OAKLAND RDO:122.3
UNICOM:122.8

KCEC Zoom In..

Runways:

(A) RW 11 length 5000 ft width 150 ft
ILS 108.70 / hdg 117

(B) RW 17 length 5001 ft width 150 ft
---- / hdg 177

(C) RW 29 length 5000 ft width 150 ft
---- / hdg 297

(D) RW 35 length 5001 ft width 150 ft
---- / hdg 357

Location; KCEC
Day. 22 / Time. 00.56 Zulu
* Altimeter: 30.22
* Temperature: 12° c. 53.6°f.
* Wind from: 340° Speed 18 kn with Gusts up to 27 kn.
Dewpoint: 08° c.
Visibility: 8 Statute Miles.
Clouds: Clear (automated report).

KCEC 220056Z AUTO 34018G27KT 8SM CLR 12/08 A3022 RMK AO2 PK WND 34031/0042 SLP232 T01220078


Wind From 340°
Speed 18 kn.

  YouTube Music Video
 
jpsmedia.com for Web Design  worldairports.se 2018   terms of use